createdAt,value
2024-01-28T00:01:39.228Z,6.8
2024-01-28T00:04:11.253Z,6.8
2024-01-28T00:06:41.068Z,6.6
2024-01-28T00:11:59.892Z,6.7
2024-01-28T00:14:30.198Z,6.7
2024-01-28T00:17:00.387Z,6.7
2024-01-28T00:19:31.020Z,6.6
2024-01-28T00:22:01.278Z,6.6
2024-01-28T00:24:31.315Z,6.5
2024-01-28T00:27:01.343Z,6.4
2024-01-28T00:29:31.374Z,6.4
2024-01-28T00:32:02.324Z,6.5
2024-01-28T00:34:33.187Z,6.3
2024-01-28T00:37:03.230Z,6.2
2024-01-28T00:39:33.473Z,6.2
2024-01-28T00:42:05.631Z,6.2
2024-01-28T00:44:36.101Z,6.1
2024-01-28T00:47:07.214Z,6
2024-01-28T00:49:37.647Z,6
2024-01-28T00:52:07.767Z,6.1
2024-01-28T00:54:37.897Z,5.9
2024-01-28T00:57:08.247Z,5.9
2024-01-28T00:59:38.384Z,5.8
2024-01-28T01:02:08.648Z,5.9
2024-01-28T01:04:38.722Z,5.9
2024-01-28T01:07:08.847Z,5.9
2024-01-28T01:09:38.879Z,5.9
2024-01-28T01:12:09.171Z,6
2024-01-28T01:14:39.327Z,5.9
2024-01-28T01:17:09.638Z,6
2024-01-28T01:19:40.430Z,5.9
2024-01-28T01:22:10.447Z,5.9
2024-01-28T01:24:40.793Z,5.9
2024-01-28T01:27:10.862Z,5.9
2024-01-28T01:29:41.403Z,5.8
2024-01-28T01:32:11.943Z,5.8
2024-01-28T01:34:41.917Z,5.8
2024-01-28T01:37:12.122Z,5.7
2024-01-28T01:39:42.128Z,5.7
2024-01-28T01:42:12.318Z,5.6
2024-01-28T01:44:42.569Z,5.7
2024-01-28T01:47:12.754Z,5.7
2024-01-28T01:49:43.512Z,5.7
2024-01-28T01:52:13.540Z,5.7
2024-01-28T01:54:43.678Z,5.7
2024-01-28T01:57:13.699Z,5.8
2024-01-28T01:59:44.079Z,5.6
2024-01-28T02:02:14.279Z,5.7
2024-01-28T02:04:45.126Z,5.6
2024-01-28T02:07:16.122Z,5.6
2024-01-28T02:09:47.096Z,5.7
2024-01-28T02:12:17.536Z,5.7
2024-01-28T02:14:49.308Z,5.7
2024-01-28T02:17:20.425Z,5.7
2024-01-28T02:19:51.164Z,5.6
2024-01-28T02:22:22.079Z,5.6
2024-01-28T02:24:52.210Z,5.6
2024-01-28T02:27:22.730Z,5.6
2024-01-28T02:29:51.404Z,5.6
2024-01-28T02:32:22.022Z,5.6
2024-01-28T02:34:52.532Z,5.4
2024-01-28T02:37:23.593Z,5.4
2024-01-28T02:39:55.267Z,5.4
2024-01-28T02:42:25.891Z,5.3
2024-01-28T02:44:56.154Z,5.3
2024-01-28T02:47:27.830Z,5.3
2024-01-28T02:49:58.718Z,5.3
2024-01-28T02:52:29.315Z,5.3
2024-01-28T02:55:02.986Z,5.4
2024-01-28T02:57:33.221Z,5.4
2024-01-28T03:00:03.437Z,5.4
2024-01-28T03:02:33.740Z,5.4
2024-01-28T03:05:04.084Z,5.3
2024-01-28T03:07:35.443Z,5.2
2024-01-28T03:10:06.043Z,5.2
2024-01-28T03:12:36.626Z,5.2
2024-01-28T03:15:07.393Z,5.1
2024-01-28T03:17:37.858Z,5.1
2024-01-28T03:20:08.207Z,5.1
2024-01-28T03:22:38.663Z,5.2
2024-01-28T03:25:10.721Z,5
2024-01-28T03:27:41.028Z,5
2024-01-28T03:30:11.447Z,4.9
2024-01-28T03:32:43.790Z,4.8
2024-01-28T03:35:12.100Z,4.9
2024-01-28T03:37:42.988Z,4.9
2024-01-28T03:40:13.721Z,4.9
2024-01-28T03:42:44.346Z,4.8
2024-01-28T03:45:14.764Z,4.9
2024-01-28T03:47:45.830Z,4.9
2024-01-28T03:50:15.323Z,4.9
2024-01-28T03:52:46.104Z,4.9
2024-01-28T03:55:16.454Z,4.8
2024-01-28T03:57:46.720Z,4.9
2024-01-28T04:00:18.161Z,4.9
2024-01-28T04:02:49.440Z,4.9
2024-01-28T04:05:20.060Z,4.9
2024-01-28T04:07:51.378Z,5
2024-01-28T04:10:21.950Z,5.1
2024-01-28T04:12:52.263Z,5.1
2024-01-28T04:15:22.611Z,5.2
2024-01-28T04:17:54.918Z,5.3
2024-01-28T04:20:25.751Z,5.3
2024-01-28T04:22:56.131Z,5.4
2024-01-28T04:25:27.220Z,5.4
2024-01-28T04:27:57.894Z,5.5
2024-01-28T04:30:28.267Z,5.6
2024-01-28T04:32:58.699Z,5.5
2024-01-28T04:35:29.785Z,5.6
2024-01-28T04:38:00.621Z,5.6
2024-01-28T04:40:31.350Z,5.6
2024-01-28T04:43:01.719Z,5.6
2024-01-28T04:45:32.667Z,5.6
2024-01-28T04:48:03.434Z,5.6
2024-01-28T04:50:33.898Z,5.7
2024-01-28T04:53:05.592Z,5.7
2024-01-28T04:55:36.070Z,5.6
2024-01-28T04:58:06.700Z,5.6
2024-01-28T05:00:36.885Z,5.6
2024-01-28T05:03:07.115Z,5.7
2024-01-28T05:05:37.636Z,5.7
2024-01-28T05:08:08.720Z,5.7
2024-01-28T05:10:39.104Z,5.7
2024-01-28T05:13:09.936Z,5.7
2024-01-28T05:15:40.288Z,5.7
2024-01-28T05:18:11.064Z,5.7
2024-01-28T05:20:40.906Z,5.7
2024-01-28T05:23:11.721Z,5.7
2024-01-28T05:25:42.481Z,5.7
2024-01-28T05:28:12.743Z,5.8
2024-01-28T05:30:43.004Z,5.8
2024-01-28T05:33:13.524Z,5.8
2024-01-28T05:35:43.943Z,5.7
2024-01-28T05:38:15.762Z,5.7
2024-01-28T05:40:46.323Z,5.8
2024-01-28T05:43:16.472Z,5.8
2024-01-28T05:45:46.773Z,5.8
2024-01-28T05:48:17.135Z,5.8
2024-01-28T05:50:47.812Z,5.8
2024-01-28T05:53:22.717Z,5.7
2024-01-28T05:55:53.335Z,5.7
2024-01-28T05:58:23.862Z,5.8
2024-01-28T06:00:54.535Z,5.8
2024-01-28T06:03:24.689Z,5.8
2024-01-28T06:05:55.857Z,5.8
2024-01-28T06:08:27.236Z,5.8
2024-01-28T06:10:57.558Z,5.9
2024-01-28T06:13:27.786Z,5.8
2024-01-28T06:15:58.235Z,5.8
2024-01-28T06:18:28.339Z,5.8
2024-01-28T06:20:59.999Z,5.8
2024-01-28T06:23:30.344Z,5.8
2024-01-28T06:26:00.682Z,5.8
2024-01-28T06:28:31.141Z,5.8
2024-01-28T06:31:01.565Z,5.8
2024-01-28T06:33:32.660Z,5.8
2024-01-28T06:36:04.943Z,5.8
2024-01-28T06:38:35.409Z,5.8
2024-01-28T06:41:06.330Z,5.8
2024-01-28T06:43:37.086Z,5.9
2024-01-28T06:46:08.522Z,5.8
2024-01-28T06:48:38.800Z,5.9
2024-01-28T06:51:09.271Z,5.8
2024-01-28T06:53:39.557Z,5.9
2024-01-28T06:56:10.473Z,5.9
2024-01-28T06:58:41.005Z,5.9
2024-01-28T07:01:11.179Z,5.9
2024-01-28T07:03:41.733Z,5.9
2024-01-28T07:06:12.123Z,6
2024-01-28T07:08:43.098Z,6
2024-01-28T07:11:13.862Z,6
2024-01-28T07:13:44.281Z,6
2024-01-28T07:16:14.937Z,6.1
2024-01-28T07:18:45.215Z,5.9
2024-01-28T07:21:15.571Z,6
2024-01-28T07:23:45.708Z,5.9
2024-01-28T07:26:14.600Z,5.9
2024-01-28T07:28:44.798Z,5.9
2024-01-28T07:31:15.432Z,5.9
2024-01-28T07:33:45.982Z,5.9
2024-01-28T07:36:15.900Z,5.9
2024-01-28T07:38:47.143Z,6
2024-01-28T07:41:17.609Z,6
2024-01-28T07:43:48.849Z,6.1
2024-01-28T07:46:20.355Z,6.2
2024-01-28T07:48:50.895Z,6.3
2024-01-28T07:51:21.983Z,6.3
2024-01-28T07:53:53.018Z,6.3
2024-01-28T07:56:23.654Z,6.4
2024-01-28T07:58:53.803Z,6.5
2024-01-28T08:01:24.531Z,6.6
2024-01-28T08:03:55.151Z,6.6
2024-01-28T08:06:26.339Z,6.7
2024-01-28T08:08:57.201Z,6.7
2024-01-28T08:11:28.900Z,6.8
2024-01-28T08:13:59.962Z,6.8
2024-01-28T08:16:29.947Z,6.8
2024-01-28T08:18:58.857Z,6.9
2024-01-28T08:21:28.928Z,6.9
2024-01-28T08:23:59.494Z,6.9
2024-01-28T08:26:30.111Z,6.9
2024-01-28T08:29:00.786Z,6.9
2024-01-28T08:31:32.772Z,6.9
2024-01-28T08:34:03.169Z,6.9
2024-01-28T08:36:34.478Z,6.9
2024-01-28T08:39:04.492Z,7
2024-01-28T08:41:36.514Z,7.1
2024-01-28T08:44:08.706Z,7.1
2024-01-28T08:46:39.346Z,7.1
2024-01-28T08:49:09.544Z,7.1
2024-01-28T08:51:40.226Z,7.1
2024-01-28T08:54:11.006Z,7.2
2024-01-28T08:56:41.587Z,7.1
2024-01-28T08:59:13.751Z,7.2
2024-01-28T09:01:45.069Z,7.3
2024-01-28T09:04:15.745Z,7.3
2024-01-28T09:06:46.146Z,7.3
2024-01-28T09:09:16.184Z,7.3
2024-01-28T09:11:49.050Z,7.1
2024-01-28T09:14:17.785Z,7.2
2024-01-28T09:16:48.950Z,7.2
2024-01-28T09:19:19.606Z,7.3
2024-01-28T09:21:49.550Z,7.2
2024-01-28T09:24:19.962Z,7.3
2024-01-28T09:26:50.154Z,7.3
2024-01-28T09:29:21.059Z,7.3
2024-01-28T09:31:51.426Z,7.3
2024-01-28T09:34:21.974Z,7.3
2024-01-28T09:36:52.595Z,7.3
2024-01-28T09:39:25.828Z,7.4
2024-01-28T09:41:55.864Z,7.4
2024-01-28T09:44:32.651Z,7.4
2024-01-28T09:47:01.623Z,7.5
2024-01-28T09:49:35.078Z,7.5
2024-01-28T09:52:06.021Z,7.4
2024-01-28T09:54:37.397Z,7.5
2024-01-28T09:57:07.463Z,7.5
2024-01-28T09:59:37.712Z,7.5
2024-01-28T10:02:07.997Z,7.5
2024-01-28T10:04:38.671Z,7.6
2024-01-28T10:07:17.521Z,7.6
2024-01-28T10:09:50.767Z,7.4
2024-01-28T10:12:20.548Z,7.5
2024-01-28T10:20:39.079Z,7.8
2024-01-28T10:23:09.266Z,7.9
2024-01-28T10:25:39.296Z,7.9
2024-01-28T10:28:10.405Z,7.9
2024-01-28T10:30:40.688Z,8
2024-01-28T10:33:13.477Z,8
2024-01-28T10:35:40.594Z,8.1
2024-01-28T10:38:10.902Z,8.1
2024-01-28T10:40:41.047Z,8.1
2024-01-28T10:43:11.396Z,8.2
2024-01-28T10:45:41.837Z,8.1
2024-01-28T10:48:23.628Z,8.2
2024-01-28T10:51:06.902Z,8.4
2024-01-28T10:56:28.690Z,8.4
2024-01-28T10:58:58.715Z,8.5
2024-01-28T11:01:31.206Z,8.5
2024-01-28T11:04:01.182Z,8.5
2024-01-28T11:06:31.268Z,8.4
2024-01-28T11:09:01.187Z,8.4
2024-01-28T11:11:31.171Z,8.4
2024-01-28T11:14:01.776Z,8.5
2024-01-28T11:16:31.590Z,8.5
2024-01-28T11:19:02.073Z,8.6
2024-01-28T11:21:32.329Z,8.6
2024-01-28T11:24:02.569Z,8.6
2024-01-28T11:26:32.683Z,8.6
2024-01-28T11:29:02.868Z,8.6
2024-01-28T11:31:32.740Z,8.6
2024-01-28T11:34:03.264Z,8.6
2024-01-28T11:36:33.495Z,8.7
2024-01-28T11:39:03.632Z,8.7
2024-01-28T11:41:33.588Z,8.6
2024-01-28T11:44:03.615Z,8.6
2024-01-28T11:46:35.075Z,8.6
2024-01-28T11:49:05.952Z,8.6
2024-01-28T11:51:36.734Z,8.6
2024-01-28T11:54:06.896Z,8.6
2024-01-28T11:56:43.149Z,8.5
2024-01-28T11:59:12.143Z,8.5
2024-01-28T12:01:42.369Z,8.6
2024-01-28T12:04:12.916Z,8.6
2024-01-28T12:06:48.475Z,8.7
2024-01-28T12:09:26.960Z,8.8
2024-01-28T12:11:56.883Z,8.9
2024-01-28T12:14:27.187Z,8.9
2024-01-28T12:17:19.270Z,9.1
2024-01-28T12:19:56.957Z,9.3
2024-01-28T12:22:26.810Z,9.4
2024-01-28T12:24:56.406Z,9.4
2024-01-28T12:27:25.044Z,9.5
2024-01-28T12:29:54.934Z,9.5
2024-01-28T12:32:25.603Z,9.6
2024-01-28T12:34:55.660Z,9.6
2024-01-28T12:37:26.490Z,9.6
2024-01-28T12:39:55.954Z,9.7
2024-01-28T12:42:25.911Z,9.7
2024-01-28T12:44:55.844Z,9.9
2024-01-28T12:47:26.001Z,9.9
2024-01-28T12:49:56.105Z,9.8
2024-01-28T12:52:25.926Z,9.8
2024-01-28T12:54:56.842Z,9.8
2024-01-28T12:57:26.966Z,9.7
2024-01-28T12:59:57.039Z,9.9
2024-01-28T13:02:25.990Z,9.8
2024-01-28T13:04:55.960Z,9.6
2024-01-28T13:07:26.108Z,9.7
2024-01-28T13:09:54.894Z,9.9
2024-01-28T13:12:27.290Z,9.9
2024-01-28T13:14:57.634Z,9.9
2024-01-28T13:17:27.891Z,10
2024-01-28T13:19:58.099Z,10
2024-01-28T13:22:28.145Z,9.9
2024-01-28T13:24:56.565Z,9.8
2024-01-28T13:27:26.667Z,9.8
2024-01-28T13:29:56.836Z,9.7
2024-01-28T13:32:26.994Z,9.7
2024-01-28T13:34:57.536Z,9.5
2024-01-28T13:37:27.640Z,9.6
2024-01-28T13:39:57.834Z,9.6
2024-01-28T13:42:28.195Z,9.6
2024-01-28T13:44:58.566Z,9.6
2024-01-28T13:47:27.526Z,9.7
2024-01-28T13:49:57.730Z,9.7
2024-01-28T13:52:27.860Z,9.7
2024-01-28T13:54:58.065Z,9.7
2024-01-28T13:57:28.304Z,9.7
2024-01-28T14:00:00.274Z,9.7
2024-01-28T14:02:30.829Z,9.7
2024-01-28T14:05:01.012Z,9.7
2024-01-28T14:07:31.173Z,9.7
2024-01-28T14:10:01.262Z,9.7
2024-01-28T14:12:33.359Z,9.8
2024-01-28T14:15:03.813Z,9.5
2024-01-28T14:17:37.755Z,9.6
2024-01-28T14:20:05.274Z,9.6
2024-01-28T14:22:42.131Z,9.6
2024-01-28T14:25:22.016Z,9.6
2024-01-28T14:27:58.395Z,9.5
2024-01-28T14:30:28.527Z,9.5
2024-01-28T14:32:58.776Z,9.5
2024-01-28T14:35:28.724Z,9.6
2024-01-28T14:37:58.593Z,9.6
2024-01-28T14:40:28.974Z,9.5
2024-01-28T14:42:59.170Z,9.5
2024-01-28T14:45:29.726Z,9.4
2024-01-28T14:47:59.900Z,9.4
2024-01-28T14:50:30.631Z,9.4
2024-01-28T14:53:00.733Z,9.4
2024-01-28T14:55:30.934Z,9.5
2024-01-28T14:58:00.854Z,9.3
2024-01-28T15:00:31.100Z,9.3
2024-01-28T15:03:01.405Z,9.3
2024-01-28T15:05:31.599Z,9.3
2024-01-28T15:08:01.912Z,9.2
2024-01-28T15:10:32.257Z,9.1
2024-01-28T15:13:03.405Z,9.2
2024-01-28T15:15:33.557Z,9.1
2024-01-28T15:18:03.644Z,9.1
2024-01-28T15:20:33.697Z,9.1
2024-01-28T15:23:03.970Z,9
2024-01-28T15:25:33.929Z,9
2024-01-28T15:28:04.075Z,9
2024-01-28T15:30:34.211Z,9
2024-01-28T15:33:04.555Z,9
2024-01-28T15:35:34.520Z,9
2024-01-28T15:38:04.674Z,8.9
2024-01-28T15:40:34.752Z,8.9
2024-01-28T15:43:04.766Z,8.9
2024-01-28T15:45:34.938Z,8.9
2024-01-28T15:48:05.123Z,8.6
2024-01-28T15:50:35.172Z,8.7
2024-01-28T15:53:05.512Z,8.8
2024-01-28T15:55:35.811Z,8.8
2024-01-28T15:58:05.858Z,8.8
2024-01-28T16:00:36.165Z,8.7
2024-01-28T16:03:06.355Z,8.7
2024-01-28T16:05:36.654Z,8.6
2024-01-28T16:08:10.665Z,8.7
2024-01-28T16:10:41.436Z,8.7
2024-01-28T16:13:14.456Z,8.7
2024-01-28T16:15:51.245Z,8.7
2024-01-28T16:18:30.513Z,8.7
2024-01-28T16:21:02.791Z,8.8
2024-01-28T16:23:37.988Z,8.8
2024-01-28T16:26:08.952Z,8.7
2024-01-28T16:28:38.474Z,8.7
2024-01-28T16:31:08.427Z,8.6
2024-01-28T16:33:38.787Z,8.6
2024-01-28T16:36:08.738Z,8.6
2024-01-28T16:38:39.752Z,8.6
2024-01-28T16:41:13.408Z,8.6
2024-01-28T16:43:43.746Z,8.6
2024-01-28T16:46:13.872Z,8.6
2024-01-28T16:48:44.141Z,8.5
2024-01-28T16:51:13.977Z,8.5
2024-01-28T16:53:44.899Z,8.4
2024-01-28T16:56:14.719Z,8.4
2024-01-28T16:58:44.664Z,8.3
2024-01-28T17:01:14.674Z,8.3
2024-01-28T17:03:44.702Z,8.3
2024-01-28T17:06:14.972Z,8.3
2024-01-28T17:08:44.784Z,8.3
2024-01-28T17:11:14.994Z,8.2
2024-01-28T17:13:45.082Z,8.2
2024-01-28T17:16:15.129Z,8.2
2024-01-28T17:18:45.101Z,8.1
2024-01-28T17:21:15.190Z,8.1
2024-01-28T17:23:46.343Z,8.1
2024-01-28T17:26:16.197Z,8.1
2024-01-28T17:28:46.684Z,8.1
2024-01-28T17:31:17.006Z,8.1
2024-01-28T17:33:47.072Z,8
2024-01-28T17:36:17.179Z,8
2024-01-28T17:38:47.255Z,7.9
2024-01-28T17:41:17.196Z,7.9
2024-01-28T17:43:47.301Z,7.9
2024-01-28T17:46:17.317Z,7.9
2024-01-28T17:48:48.491Z,7.8
2024-01-28T17:51:18.350Z,7.8
2024-01-28T17:53:48.569Z,7.8
2024-01-28T17:56:18.722Z,7.8
2024-01-28T17:58:48.933Z,7.7
2024-01-28T18:01:18.962Z,7.7
2024-01-28T18:03:49.070Z,7.7
2024-01-28T18:06:18.854Z,7.7
2024-01-28T18:08:48.948Z,7.6
2024-01-28T18:11:19.290Z,7.6
2024-01-28T18:13:49.517Z,7.5
2024-01-28T18:16:19.503Z,7.5
2024-01-28T18:18:49.673Z,7.5
2024-01-28T18:21:20.090Z,7.4
2024-01-28T18:23:48.729Z,7.4
2024-01-28T18:26:18.789Z,7.3
2024-01-28T18:28:48.977Z,7.3
2024-01-28T18:31:19.232Z,7.3
2024-01-28T18:33:49.533Z,7.3
2024-01-28T18:36:20.125Z,7.3
2024-01-28T18:38:50.532Z,7.2
2024-01-28T18:41:20.796Z,7.2
2024-01-28T18:43:50.801Z,7.2
2024-01-28T18:46:20.599Z,7.1
2024-01-28T18:48:51.232Z,7.1
2024-01-28T18:51:21.345Z,6.9
2024-01-28T18:53:51.504Z,6.9
2024-01-28T18:56:21.611Z,6.9
2024-01-28T18:58:51.310Z,6.9
2024-01-28T19:01:21.636Z,6.9
2024-01-28T19:03:51.652Z,6.9
2024-01-28T19:06:22.279Z,7
2024-01-28T19:08:50.757Z,6.9
2024-01-28T19:11:21.983Z,6.9
2024-01-28T19:13:52.064Z,6.8
2024-01-28T19:16:22.405Z,6.8
2024-01-28T19:18:52.912Z,6.8
2024-01-28T19:21:21.810Z,6.8
2024-01-28T19:23:52.057Z,6.8
2024-01-28T19:26:22.144Z,6.8
2024-01-28T19:28:52.280Z,6.8
2024-01-28T19:31:22.131Z,6.8
2024-01-28T19:33:52.163Z,6.7
2024-01-28T19:36:22.206Z,6.7
2024-01-28T19:38:50.476Z,6.8
2024-01-28T19:41:20.394Z,6.7
2024-01-28T19:43:50.641Z,6.6
2024-01-28T19:46:20.654Z,6.7
2024-01-28T19:48:50.645Z,6.6
2024-01-28T19:51:20.376Z,6.7
2024-01-28T19:53:50.388Z,6.6
2024-01-28T19:56:20.438Z,6.6
2024-01-28T19:58:50.375Z,6.5
2024-01-28T20:01:20.760Z,6.5
2024-01-28T20:03:50.581Z,6.4
2024-01-28T20:06:28.118Z,6.4
2024-01-28T20:08:53.195Z,6.3
2024-01-28T20:11:23.045Z,6.3
2024-01-28T20:13:53.178Z,6.3
2024-01-28T20:16:23.139Z,6.3
2024-01-28T20:18:53.316Z,6.4
2024-01-28T20:21:24.750Z,6.4
2024-01-28T20:23:54.593Z,6.3
2024-01-28T20:26:24.755Z,6.3
2024-01-28T20:28:55.018Z,6.3
2024-01-28T20:31:25.111Z,6.3
2024-01-28T20:33:55.251Z,6.3
2024-01-28T20:36:25.778Z,6.3
2024-01-28T20:38:55.948Z,6.1
2024-01-28T20:41:25.955Z,6.1
2024-01-28T20:43:56.063Z,6.1
2024-01-28T20:46:26.046Z,6.1
2024-01-28T20:48:56.776Z,6.1
2024-01-28T20:51:26.957Z,6.1
2024-01-28T20:53:57.457Z,6.1
2024-01-28T20:56:27.612Z,6.1
2024-01-28T20:58:57.776Z,5.9
2024-01-28T21:01:28.153Z,5.9
2024-01-28T21:03:58.094Z,5.9
2024-01-28T21:06:36.303Z,6
2024-01-28T21:09:06.861Z,5.9
2024-01-28T21:11:38.550Z,5.9
2024-01-28T21:14:08.539Z,5.9
2024-01-28T21:16:38.771Z,5.9
2024-01-28T21:19:09.473Z,5.8
2024-01-28T21:21:39.601Z,5.8
2024-01-28T21:24:09.421Z,5.8
2024-01-28T21:26:38.271Z,5.8
2024-01-28T21:29:08.455Z,5.8
2024-01-28T21:31:38.585Z,5.7
2024-01-28T21:34:09.472Z,5.7
2024-01-28T21:36:41.301Z,5.7
2024-01-28T21:39:11.979Z,5.7
2024-01-28T21:41:40.222Z,5.6
2024-01-28T21:44:11.098Z,5.5
2024-01-28T21:46:41.620Z,5.5
2024-01-28T21:49:12.534Z,5.6
2024-01-28T21:51:43.264Z,5.5
2024-01-28T21:56:58.033Z,5.3
2024-01-28T21:59:29.772Z,5.3
2024-01-28T22:02:00.407Z,5.3
2024-01-28T22:04:30.495Z,5.3
2024-01-28T22:07:00.568Z,5.3
2024-01-28T22:09:30.877Z,5.3
2024-01-28T22:12:02.667Z,5.3
2024-01-28T22:14:36.088Z,5.3
2024-01-28T22:17:06.892Z,5.2
2024-01-28T22:19:37.790Z,5.2
2024-01-28T22:22:08.506Z,5.2
2024-01-28T22:24:38.558Z,5.1
2024-01-28T22:27:09.010Z,5.2
2024-01-28T22:29:39.076Z,5.3
2024-01-28T22:32:09.579Z,5.4
2024-01-28T22:34:40.375Z,5.4
2024-01-28T22:37:10.947Z,5.3
2024-01-28T22:39:41.127Z,5.3
2024-01-28T22:42:11.606Z,5.3
2024-01-28T22:44:42.353Z,5.3
2024-01-28T22:47:12.371Z,5.3
2024-01-28T22:49:43.058Z,5.3
2024-01-28T22:52:13.947Z,5.3
2024-01-28T22:54:44.001Z,5.3
2024-01-28T22:57:14.398Z,5.3
2024-01-28T22:59:44.576Z,5.3
2024-01-28T23:02:16.334Z,5.3
2024-01-28T23:04:47.120Z,5.2
2024-01-28T23:07:18.445Z,5.3
2024-01-28T23:09:49.081Z,5.2
2024-01-28T23:12:19.216Z,5.2
2024-01-28T23:14:49.173Z,5.2
2024-01-28T23:17:19.717Z,5.2
2024-01-28T23:19:50.933Z,5.2
2024-01-28T23:22:21.592Z,5.1
2024-01-28T23:24:52.412Z,5.1
2024-01-28T23:27:22.334Z,5.1
2024-01-28T23:29:52.494Z,5.1
2024-01-28T23:32:22.965Z,5
2024-01-28T23:34:53.533Z,5
2024-01-28T23:37:24.319Z,4.9
2024-01-28T23:39:54.715Z,4.9
2024-01-28T23:42:25.143Z,4.8
2024-01-28T23:44:55.700Z,4.8
2024-01-28T23:47:26.754Z,4.8
2024-01-28T23:49:57.011Z,4.7
2024-01-28T23:52:27.777Z,4.6
2024-01-28T23:54:58.016Z,4.6
2024-01-28T23:57:28.904Z,4.7
